createdAt,value
2022-07-26T00:00:32.413Z,1009.49
2022-07-26T00:01:35.948Z,1009.55
2022-07-26T00:02:21.302Z,1009.55
2022-07-26T00:03:21.222Z,1009.59
2022-07-26T00:04:21.226Z,1009.6
2022-07-26T00:05:21.221Z,1009.6
2022-07-26T00:06:21.242Z,1009.65
2022-07-26T00:07:21.239Z,1009.64
2022-07-26T00:08:21.226Z,1009.58
2022-07-26T00:09:21.242Z,1009.61
2022-07-26T00:10:21.220Z,1009.67
2022-07-26T00:11:21.227Z,1009.66
2022-07-26T00:12:21.241Z,1009.62
2022-07-26T00:13:21.229Z,1009.65
2022-07-26T00:14:21.227Z,1009.66
2022-07-26T00:15:21.243Z,1009.66
2022-07-26T00:16:21.283Z,1009.73
2022-07-26T00:17:21.250Z,1009.75
2022-07-26T00:18:21.226Z,1009.78
2022-07-26T00:19:21.240Z,1009.78
2022-07-26T00:20:21.227Z,1009.83
2022-07-26T00:21:21.222Z,1009.89
2022-07-26T00:22:21.251Z,1009.83
2022-07-26T00:23:21.230Z,1009.93
2022-07-26T00:24:21.256Z,1009.91
2022-07-26T00:25:21.217Z,1009.91
2022-07-26T00:26:21.220Z,1009.92
2022-07-26T00:27:54.952Z,1009.98
2022-07-26T00:28:28.534Z,1009.99
2022-07-26T00:29:28.277Z,1010.07
2022-07-26T00:30:21.219Z,1010.1
2022-07-26T00:31:21.266Z,1010.09
2022-07-26T00:32:22.392Z,1010.16
2022-07-26T00:33:21.238Z,1010.16
2022-07-26T00:34:21.231Z,1010.18
2022-07-26T00:35:21.223Z,1010.24
2022-07-26T00:36:29.181Z,1010.26
2022-07-26T00:37:21.294Z,1010.26
2022-07-26T00:38:21.236Z,1010.26
2022-07-26T00:39:21.256Z,1010.33
2022-07-26T00:40:28.199Z,1010.33
2022-07-26T00:41:21.219Z,1010.35
2022-07-26T00:42:21.224Z,1010.35
2022-07-26T00:43:21.232Z,1010.36
2022-07-26T00:44:21.223Z,1010.38
2022-07-26T00:45:43.909Z,1010.43
2022-07-26T00:46:21.430Z,1010.43
2022-07-26T00:47:21.233Z,1010.5
2022-07-26T00:48:36.231Z,1010.54
2022-07-26T00:49:21.301Z,1010.55
2022-07-26T00:50:21.221Z,1010.66
2022-07-26T00:51:21.224Z,1010.66
2022-07-26T00:52:21.228Z,1010.74
2022-07-26T00:53:21.243Z,1010.64
2022-07-26T00:54:21.236Z,1010.76
2022-07-26T00:55:21.225Z,1010.77
2022-07-26T00:56:21.358Z,1010.77
2022-07-26T00:57:21.231Z,1010.76
2022-07-26T00:58:21.267Z,1010.89
2022-07-26T00:59:24.977Z,1010.91
2022-07-26T01:00:32.250Z,1010.91
2022-07-26T01:01:21.334Z,1010.9
2022-07-26T01:02:21.268Z,1011
2022-07-26T01:03:21.251Z,1011.08
2022-07-26T01:04:21.221Z,1011.06
2022-07-26T01:05:36.332Z,1011.03
2022-07-26T01:06:23.983Z,1011.04
2022-07-26T01:07:21.225Z,1011.1
2022-07-26T01:08:21.235Z,1011.17
2022-07-26T01:09:21.241Z,1011.13
2022-07-26T01:10:21.225Z,1011.17
2022-07-26T01:11:21.219Z,1011.24
2022-07-26T01:12:26.280Z,1011.26
2022-07-26T01:13:21.250Z,1011.21
2022-07-26T01:14:34.612Z,1011.26
2022-07-26T01:15:21.236Z,1011.24
2022-07-26T01:16:27.719Z,1011.28
2022-07-26T01:17:21.222Z,1011.3
2022-07-26T01:18:21.258Z,1011.27
2022-07-26T01:19:21.234Z,1011.25
2022-07-26T01:20:21.231Z,1011.28
2022-07-26T01:21:21.228Z,1011.42
2022-07-26T01:22:29.369Z,1011.4
2022-07-26T01:23:21.254Z,1011.41
2022-07-26T01:24:21.256Z,1011.48
2022-07-26T01:25:21.234Z,1011.54
2022-07-26T01:26:21.242Z,1011.5
2022-07-26T01:27:21.269Z,1011.57
2022-07-26T01:28:21.261Z,1011.52
2022-07-26T01:29:21.240Z,1011.61
2022-07-26T01:30:25.121Z,1011.64
2022-07-26T01:31:45.835Z,1011.58
2022-07-26T01:32:21.234Z,1011.58
2022-07-26T01:33:21.257Z,1011.57
2022-07-26T01:34:21.243Z,1011.57
2022-07-26T01:35:23.200Z,1011.57
2022-07-26T01:36:21.236Z,1011.66
2022-07-26T01:37:21.244Z,1011.67
2022-07-26T01:38:21.258Z,1011.68
2022-07-26T01:39:21.257Z,1011.74
2022-07-26T01:40:21.270Z,1011.77
2022-07-26T01:41:22.773Z,1011.78
2022-07-26T01:42:21.228Z,1011.79
2022-07-26T01:43:21.325Z,1011.82
2022-07-26T01:44:21.223Z,1011.85
2022-07-26T01:45:21.225Z,1011.85
2022-07-26T01:46:21.290Z,1011.83
2022-07-26T01:47:21.232Z,1011.89
2022-07-26T01:48:21.230Z,1011.84
2022-07-26T01:49:21.318Z,1011.84
2022-07-26T01:50:21.233Z,1011.85
2022-07-26T01:51:21.231Z,1011.91
2022-07-26T01:52:21.245Z,1011.9
2022-07-26T01:53:21.261Z,1011.88
2022-07-26T01:54:22.458Z,1011.91
2022-07-26T01:55:24.814Z,1011.98
2022-07-26T01:56:21.239Z,1012.02
2022-07-26T01:57:21.224Z,1012.04
2022-07-26T01:58:21.244Z,1012.04
2022-07-26T01:59:21.223Z,1012.05
2022-07-26T02:00:21.222Z,1012
2022-07-26T02:01:38.029Z,1012.08
2022-07-26T02:02:21.345Z,1011.95
2022-07-26T02:03:34.428Z,1012
2022-07-26T02:04:21.226Z,1012.01
2022-07-26T02:05:21.228Z,1012.09
2022-07-26T02:06:21.235Z,1012.01
2022-07-26T02:07:21.228Z,1012.01
2022-07-26T02:08:21.296Z,1011.95
2022-07-26T02:09:21.257Z,1011.97
2022-07-26T02:10:21.225Z,1012.02
2022-07-26T02:11:21.225Z,1012.02
2022-07-26T02:12:21.225Z,1012.06
2022-07-26T02:13:21.233Z,1012.09
2022-07-26T02:14:31.992Z,1012.14
2022-07-26T02:15:21.226Z,1012.13
2022-07-26T02:16:21.299Z,1012.18
2022-07-26T02:17:21.222Z,1012.18
2022-07-26T02:18:21.230Z,1012.21
2022-07-26T02:19:21.232Z,1012.31
2022-07-26T02:20:21.255Z,1012.35
2022-07-26T02:21:21.227Z,1012.43
2022-07-26T02:22:30.834Z,1012.38
2022-07-26T02:23:21.232Z,1012.37
2022-07-26T02:24:21.249Z,1012.36
2022-07-26T02:25:21.227Z,1012.36
2022-07-26T02:26:38.140Z,1012.38
2022-07-26T02:27:21.237Z,1012.37
2022-07-26T02:28:21.233Z,1012.47
2022-07-26T02:29:21.234Z,1012.46
2022-07-26T02:30:21.226Z,1012.43
2022-07-26T02:31:21.351Z,1012.44
2022-07-26T02:32:21.232Z,1012.45
2022-07-26T02:33:21.229Z,1012.5
2022-07-26T02:34:21.242Z,1012.45
2022-07-26T02:35:21.224Z,1012.46
2022-07-26T02:36:21.229Z,1012.48
2022-07-26T02:37:43.700Z,1012.49
2022-07-26T02:38:21.225Z,1012.45
2022-07-26T02:39:21.248Z,1012.45
2022-07-26T02:40:21.283Z,1012.42
2022-07-26T02:41:21.247Z,1012.5
2022-07-26T02:42:28.768Z,1012.5
2022-07-26T02:43:21.225Z,1012.5
2022-07-26T02:44:21.252Z,1012.57
2022-07-26T02:46:01.922Z,1012.59
2022-07-26T02:46:21.268Z,1012.59
2022-07-26T02:47:21.225Z,1012.64
2022-07-26T02:48:21.226Z,1012.65
2022-07-26T02:49:31.082Z,1012.65
2022-07-26T02:50:21.233Z,1012.67
2022-07-26T02:51:28.736Z,1012.65
2022-07-26T02:52:21.250Z,1012.63
2022-07-26T02:53:21.238Z,1012.65
2022-07-26T02:54:21.257Z,1012.67
2022-07-26T02:55:21.253Z,1012.67
2022-07-26T02:56:21.227Z,1012.67
2022-07-26T02:57:21.223Z,1012.64
2022-07-26T02:58:27.009Z,1012.64
2022-07-26T02:59:21.224Z,1012.61
2022-07-26T03:00:21.231Z,1012.62
2022-07-26T03:01:21.259Z,1012.57
2022-07-26T03:02:21.344Z,1012.59
2022-07-26T03:03:21.252Z,1012.54
2022-07-26T03:04:21.229Z,1012.53
2022-07-26T03:05:31.999Z,1012.57
2022-07-26T03:06:21.227Z,1012.58
2022-07-26T03:07:21.226Z,1012.58
2022-07-26T03:08:21.236Z,1012.5
2022-07-26T03:09:21.250Z,1012.5
2022-07-26T03:10:21.242Z,1012.49
2022-07-26T03:11:21.224Z,1012.49
2022-07-26T03:12:21.235Z,1012.46
2022-07-26T03:13:21.238Z,1012.49
2022-07-26T03:14:21.223Z,1012.46
2022-07-26T03:15:21.251Z,1012.44
2022-07-26T03:16:24.791Z,1012.49
2022-07-26T03:17:21.226Z,1012.49
2022-07-26T03:18:21.244Z,1012.54
2022-07-26T03:19:54.721Z,1012.54
2022-07-26T03:20:21.234Z,1012.53
2022-07-26T03:21:21.240Z,1012.53
2022-07-26T03:22:21.224Z,1012.54
2022-07-26T03:23:25.832Z,1012.54
2022-07-26T03:24:21.235Z,1012.55
2022-07-26T03:25:21.226Z,1012.51
2022-07-26T03:26:21.232Z,1012.51
2022-07-26T03:27:21.219Z,1012.54
2022-07-26T03:28:21.255Z,1012.57
2022-07-26T03:29:21.236Z,1012.6
2022-07-26T03:30:24.565Z,1012.61
2022-07-26T03:31:21.312Z,1012.61
2022-07-26T03:32:23.167Z,1012.61
2022-07-26T03:33:21.219Z,1012.62
2022-07-26T03:34:21.220Z,1012.62
2022-07-26T03:35:21.226Z,1012.59
2022-07-26T03:36:21.228Z,1012.59
2022-07-26T03:37:21.226Z,1012.61
2022-07-26T03:38:21.229Z,1012.58
2022-07-26T03:39:21.237Z,1012.58
2022-07-26T03:40:21.223Z,1012.58
2022-07-26T03:41:21.239Z,1012.62
2022-07-26T03:42:21.219Z,1012.62
2022-07-26T03:43:22.946Z,1012.64
2022-07-26T03:44:21.232Z,1012.6
2022-07-26T03:45:21.229Z,1012.6
2022-07-26T03:46:21.305Z,1012.61
2022-07-26T03:47:21.227Z,1012.52
2022-07-26T03:48:21.228Z,1012.58
2022-07-26T03:49:21.263Z,1012.56
2022-07-26T03:50:21.227Z,1012.65
2022-07-26T03:51:21.247Z,1012.65
2022-07-26T03:52:21.242Z,1012.67
2022-07-26T03:53:21.221Z,1012.64
2022-07-26T03:54:21.242Z,1012.65
2022-07-26T03:55:21.220Z,1012.71
2022-07-26T03:56:45.622Z,1012.71
2022-07-26T03:58:05.202Z,1012.75
2022-07-26T03:58:21.221Z,1012.75
2022-07-26T03:59:21.218Z,1012.79
2022-07-26T04:00:21.225Z,1012.86
2022-07-26T04:01:21.303Z,1012.86
2022-07-26T04:02:47.761Z,1012.83
2022-07-26T04:03:21.226Z,1012.77
2022-07-26T04:04:25.179Z,1012.82
2022-07-26T04:05:23.558Z,1012.82
2022-07-26T04:06:34.823Z,1012.78
2022-07-26T04:07:21.224Z,1012.8
2022-07-26T04:08:21.223Z,1012.84
2022-07-26T04:09:21.243Z,1012.83
2022-07-26T04:10:21.235Z,1012.82
2022-07-26T04:11:21.239Z,1012.84
2022-07-26T04:12:27.995Z,1012.81
2022-07-26T04:13:23.995Z,1012.85
2022-07-26T04:14:21.215Z,1012.85
2022-07-26T04:15:21.245Z,1012.81
2022-07-26T04:16:21.301Z,1012.79
2022-07-26T04:17:43.927Z,1012.83
2022-07-26T04:18:47.994Z,1012.82
2022-07-26T04:19:41.816Z,1012.82
2022-07-26T04:20:37.151Z,1012.82
2022-07-26T04:21:21.586Z,1012.79
2022-07-26T04:22:21.220Z,1012.79
2022-07-26T04:23:21.220Z,1012.85
2022-07-26T04:24:21.243Z,1012.85
2022-07-26T04:25:21.223Z,1012.85
2022-07-26T04:26:21.239Z,1012.83
2022-07-26T04:27:33.843Z,1012.83
2022-07-26T04:28:21.227Z,1012.86
2022-07-26T04:29:21.223Z,1012.91
2022-07-26T04:30:21.226Z,1012.92
2022-07-26T04:31:21.317Z,1012.96
2022-07-26T04:32:21.231Z,1012.99
2022-07-26T04:33:21.225Z,1012.99
2022-07-26T04:34:21.220Z,1012.98
2022-07-26T04:35:21.221Z,1013.02
2022-07-26T04:36:21.264Z,1013.03
2022-07-26T04:37:21.221Z,1013
2022-07-26T04:38:21.228Z,1013
2022-07-26T04:39:21.246Z,1013.01
2022-07-26T04:40:21.665Z,1013.09
2022-07-26T04:41:21.240Z,1013.13
2022-07-26T04:42:21.228Z,1013.12
2022-07-26T04:43:21.219Z,1013.13
2022-07-26T04:44:21.228Z,1013.16
2022-07-26T04:45:21.224Z,1013.21
2022-07-26T04:46:35.079Z,1013.2
2022-07-26T04:47:21.229Z,1013.2
2022-07-26T04:48:21.334Z,1013.29
2022-07-26T04:49:28.933Z,1013.31
2022-07-26T04:50:21.221Z,1013.29
2022-07-26T04:51:21.239Z,1013.33
2022-07-26T04:52:21.226Z,1013.32
2022-07-26T04:53:21.221Z,1013.38
2022-07-26T04:54:21.233Z,1013.44
2022-07-26T04:55:21.226Z,1013.44
2022-07-26T04:56:21.227Z,1013.49
2022-07-26T04:57:30.264Z,1013.49
2022-07-26T04:58:44.776Z,1013.49
2022-07-26T04:59:21.963Z,1013.48
2022-07-26T05:00:22.784Z,1013.45
2022-07-26T05:01:21.291Z,1013.42
2022-07-26T05:02:21.338Z,1013.45
2022-07-26T05:03:21.233Z,1013.45
2022-07-26T05:04:39.660Z,1013.46
2022-07-26T05:05:21.224Z,1013.46
2022-07-26T05:06:21.237Z,1013.46
2022-07-26T05:07:21.225Z,1013.46
2022-07-26T05:08:25.683Z,1013.47
2022-07-26T05:09:21.251Z,1013.47
2022-07-26T05:10:21.233Z,1013.55
2022-07-26T05:11:21.233Z,1013.6
2022-07-26T05:12:21.223Z,1013.61
2022-07-26T05:13:31.152Z,1013.61
2022-07-26T05:14:21.216Z,1013.6
2022-07-26T05:15:21.222Z,1013.58
2022-07-26T05:16:21.242Z,1013.61
2022-07-26T05:17:21.320Z,1013.59
2022-07-26T05:18:49.087Z,1013.55
2022-07-26T05:19:49.303Z,1013.54
2022-07-26T05:20:21.222Z,1013.55
2022-07-26T05:21:21.247Z,1013.55
2022-07-26T05:22:21.221Z,1013.55
2022-07-26T05:23:21.226Z,1013.66
2022-07-26T05:24:24.676Z,1013.67
2022-07-26T05:25:21.234Z,1013.66
2022-07-26T05:26:59.986Z,1013.65
2022-07-26T05:27:21.226Z,1013.65
2022-07-26T05:28:33.747Z,1013.6
2022-07-26T05:29:21.226Z,1013.59
2022-07-26T05:30:21.230Z,1013.68
2022-07-26T05:31:21.295Z,1013.68
2022-07-26T05:32:21.230Z,1013.68
2022-07-26T05:33:21.411Z,1013.67
2022-07-26T05:34:54.782Z,1013.67
2022-07-26T05:35:21.239Z,1013.72
2022-07-26T05:36:21.239Z,1013.68
2022-07-26T05:37:21.224Z,1013.68
2022-07-26T05:38:21.224Z,1013.69
2022-07-26T05:39:21.229Z,1013.67
2022-07-26T05:40:21.244Z,1013.67
2022-07-26T05:41:21.237Z,1013.67
2022-07-26T05:42:21.229Z,1013.69
2022-07-26T05:43:21.224Z,1013.65
2022-07-26T05:44:21.240Z,1013.64
2022-07-26T05:45:38.397Z,1013.63
2022-07-26T05:46:21.304Z,1013.66
2022-07-26T05:47:21.234Z,1013.71
2022-07-26T05:48:21.225Z,1013.71
2022-07-26T05:49:21.225Z,1013.74
2022-07-26T05:50:21.276Z,1013.76
2022-07-26T05:51:21.232Z,1013.69
2022-07-26T05:52:21.281Z,1013.75
2022-07-26T05:53:21.230Z,1013.77
2022-07-26T05:54:22.946Z,1013.77
2022-07-26T05:55:21.257Z,1013.8
2022-07-26T05:56:21.234Z,1013.83
2022-07-26T05:57:36.800Z,1013.8
2022-07-26T05:58:21.224Z,1013.8
2022-07-26T05:59:21.229Z,1013.8
2022-07-26T06:00:26.800Z,1013.8
2022-07-26T06:01:21.252Z,1013.79
2022-07-26T06:02:21.343Z,1013.84
2022-07-26T06:03:47.859Z,1013.81
2022-07-26T06:04:21.332Z,1013.8
2022-07-26T06:05:21.224Z,1013.78
2022-07-26T06:06:21.234Z,1013.79
2022-07-26T06:07:21.240Z,1013.8
2022-07-26T06:08:21.243Z,1013.78
2022-07-26T06:09:21.266Z,1013.79
2022-07-26T06:10:21.249Z,1013.79
2022-07-26T06:11:21.249Z,1013.79
2022-07-26T06:12:21.226Z,1013.78
2022-07-26T06:13:21.233Z,1013.8
2022-07-26T06:15:01.007Z,1013.79
2022-07-26T06:15:43.716Z,1013.79
2022-07-26T06:16:21.252Z,1013.85
2022-07-26T06:18:03.859Z,1013.85
2022-07-26T06:18:21.228Z,1013.88
2022-07-26T06:19:21.226Z,1013.88
2022-07-26T06:20:43.142Z,1013.88
2022-07-26T06:21:21.247Z,1013.84
2022-07-26T06:22:48.405Z,1013.84
2022-07-26T06:23:34.352Z,1013.86
2022-07-26T06:24:21.228Z,1013.89
2022-07-26T06:25:21.239Z,1013.89
2022-07-26T06:26:21.270Z,1013.86
2022-07-26T06:27:21.249Z,1013.91
2022-07-26T06:28:21.258Z,1013.88
2022-07-26T06:29:21.237Z,1013.88
2022-07-26T06:30:21.253Z,1013.9
2022-07-26T06:31:21.308Z,1013.89
2022-07-26T06:32:21.240Z,1013.91
2022-07-26T06:33:21.235Z,1013.88
2022-07-26T06:34:21.238Z,1013.82
2022-07-26T06:35:21.226Z,1013.81
2022-07-26T06:37:18.653Z,1013.84
2022-07-26T06:37:21.112Z,1013.84
2022-07-26T06:38:21.226Z,1013.92
2022-07-26T06:39:32.722Z,1013.92
2022-07-26T06:40:21.235Z,1013.92
2022-07-26T06:41:21.222Z,1013.92
2022-07-26T06:42:21.252Z,1013.96
2022-07-26T06:43:21.232Z,1013.98
2022-07-26T06:44:21.281Z,1013.96
2022-07-26T06:45:21.237Z,1014.01
2022-07-26T06:46:21.631Z,1014.01
2022-07-26T06:47:21.243Z,1013.96
2022-07-26T06:48:21.237Z,1013.97
2022-07-26T06:49:22.857Z,1013.96
2022-07-26T06:50:25.539Z,1013.94
2022-07-26T06:51:21.221Z,1013.94
2022-07-26T06:52:21.238Z,1013.93
2022-07-26T06:53:48.215Z,1013.93
2022-07-26T06:54:21.233Z,1013.9
2022-07-26T06:55:21.240Z,1013.93
2022-07-26T06:56:21.232Z,1013.95
2022-07-26T06:57:26.488Z,1013.95
2022-07-26T06:58:21.229Z,1013.92
2022-07-26T06:59:21.225Z,1013.95
2022-07-26T07:00:21.227Z,1013.91
2022-07-26T07:01:58.660Z,1013.92
2022-07-26T07:02:21.230Z,1013.86
2022-07-26T07:03:21.237Z,1013.86
2022-07-26T07:04:51.625Z,1013.86
2022-07-26T07:05:21.309Z,1013.82
2022-07-26T07:06:21.235Z,1013.81
2022-07-26T07:07:21.224Z,1013.81
2022-07-26T07:08:21.236Z,1013.81
2022-07-26T07:09:21.223Z,1013.8
2022-07-26T07:10:23.751Z,1013.8
2022-07-26T07:11:21.211Z,1013.8
2022-07-26T07:12:21.214Z,1013.79
2022-07-26T07:13:21.238Z,1013.76
2022-07-26T07:14:21.229Z,1013.77
2022-07-26T07:15:21.216Z,1013.77
2022-07-26T07:16:48.939Z,1013.78
2022-07-26T07:17:41.231Z,1013.78
2022-07-26T07:18:21.195Z,1013.78
2022-07-26T07:19:21.224Z,1013.78
2022-07-26T07:20:21.248Z,1013.77
2022-07-26T07:21:21.245Z,1013.76
2022-07-26T07:22:21.863Z,1013.78
2022-07-26T07:23:21.246Z,1013.76
2022-07-26T07:24:21.218Z,1013.76
2022-07-26T07:25:25.750Z,1013.78
2022-07-26T07:26:21.246Z,1013.77
2022-07-26T07:27:21.239Z,1013.73
2022-07-26T07:28:21.229Z,1013.74
2022-07-26T07:29:21.224Z,1013.69
2022-07-26T07:30:57.447Z,1013.66
2022-07-26T07:31:23.615Z,1013.66
2022-07-26T07:32:28.533Z,1013.59
2022-07-26T07:33:22.810Z,1013.62
2022-07-26T07:35:02.412Z,1013.59
2022-07-26T07:35:21.226Z,1013.59
2022-07-26T07:36:21.232Z,1013.56
2022-07-26T07:37:21.236Z,1013.6
2022-07-26T07:38:22.514Z,1013.58
2022-07-26T07:40:01.423Z,1013.58
2022-07-26T07:40:21.262Z,1013.61
2022-07-26T07:41:21.239Z,1013.6
2022-07-26T07:42:21.241Z,1013.56
2022-07-26T07:43:21.235Z,1013.57
2022-07-26T07:44:21.236Z,1013.57
2022-07-26T07:45:21.231Z,1013.55
2022-07-26T07:46:21.294Z,1013.53
2022-07-26T07:47:21.233Z,1013.53
2022-07-26T07:48:21.238Z,1013.49
2022-07-26T07:49:56.116Z,1013.47
2022-07-26T07:50:21.350Z,1013.47
2022-07-26T07:51:21.229Z,1013.47
2022-07-26T07:52:21.271Z,1013.46
2022-07-26T07:53:21.225Z,1013.42
2022-07-26T07:54:22.270Z,1013.47
2022-07-26T07:55:36.403Z,1013.47
2022-07-26T07:56:21.267Z,1013.46
2022-07-26T07:57:21.238Z,1013.45
2022-07-26T07:58:21.228Z,1013.41
2022-07-26T07:59:22.781Z,1013.4
2022-07-26T08:00:27.283Z,1013.4
2022-07-26T08:01:21.315Z,1013.43
2022-07-26T08:02:21.235Z,1013.43
2022-07-26T08:03:21.221Z,1013.43
2022-07-26T08:04:21.263Z,1013.45
2022-07-26T08:05:21.620Z,1013.44
2022-07-26T08:06:21.221Z,1013.45
2022-07-26T08:07:21.257Z,1013.39
2022-07-26T08:08:22.639Z,1013.41
2022-07-26T08:09:21.227Z,1013.48
2022-07-26T08:10:21.288Z,1013.5
2022-07-26T08:11:22.887Z,1013.51
2022-07-26T08:12:21.233Z,1013.51
2022-07-26T08:13:21.646Z,1013.51
2022-07-26T08:15:36.766Z,1013.53
2022-07-26T08:15:39.343Z,1013.53
2022-07-26T08:16:34.723Z,1013.55
2022-07-26T08:17:21.246Z,1013.55
2022-07-26T08:18:22.303Z,1013.5
2022-07-26T08:19:50.544Z,1013.57
2022-07-26T08:20:22.880Z,1013.57
2022-07-26T08:21:21.230Z,1013.56
2022-07-26T08:22:24.311Z,1013.56
2022-07-26T08:23:21.245Z,1013.56
2022-07-26T08:24:21.232Z,1013.6
2022-07-26T08:25:21.249Z,1013.58
2022-07-26T08:26:21.226Z,1013.64
2022-07-26T08:27:21.233Z,1013.63
2022-07-26T08:28:45.227Z,1013.63
2022-07-26T08:29:31.618Z,1013.63
2022-07-26T08:30:21.224Z,1013.69
2022-07-26T08:31:34.822Z,1013.79
2022-07-26T08:32:21.243Z,1013.79
2022-07-26T08:33:21.225Z,1013.77
2022-07-26T08:34:21.221Z,1013.8
2022-07-26T08:35:21.220Z,1013.72
2022-07-26T08:36:21.225Z,1013.75
2022-07-26T08:37:21.238Z,1013.71
2022-07-26T08:38:21.233Z,1013.67
2022-07-26T08:39:44.991Z,1013.68
2022-07-26T08:40:36.060Z,1013.68
2022-07-26T08:41:21.221Z,1013.69
2022-07-26T08:42:22.502Z,1013.73
2022-07-26T08:43:21.229Z,1013.74
2022-07-26T08:44:21.228Z,1013.74
2022-07-26T08:45:21.223Z,1013.75
2022-07-26T08:46:26.371Z,1013.74
2022-07-26T08:47:37.567Z,1013.78
2022-07-26T08:48:21.232Z,1013.77
2022-07-26T08:49:21.323Z,1013.77
2022-07-26T08:50:21.232Z,1013.75
2022-07-26T08:51:21.223Z,1013.75
2022-07-26T08:52:21.232Z,1013.75
2022-07-26T08:53:21.238Z,1013.7
2022-07-26T08:54:21.224Z,1013.77
2022-07-26T08:55:21.222Z,1013.7
2022-07-26T08:56:26.315Z,1013.68
2022-07-26T08:57:37.869Z,1013.71
2022-07-26T08:58:21.233Z,1013.72
2022-07-26T08:59:57.827Z,1013.7
2022-07-26T09:00:21.239Z,1013.7
2022-07-26T09:01:21.381Z,1013.72
2022-07-26T09:02:55.600Z,1013.68
2022-07-26T09:03:21.293Z,1013.71
2022-07-26T09:04:31.510Z,1013.66
2022-07-26T09:05:21.228Z,1013.71
2022-07-26T09:06:21.230Z,1013.73
2022-07-26T09:07:45.129Z,1013.73
2022-07-26T09:08:21.235Z,1013.79
2022-07-26T09:09:21.261Z,1013.74
2022-07-26T09:10:21.251Z,1013.74
2022-07-26T09:11:21.221Z,1013.72
2022-07-26T09:12:21.229Z,1013.72
2022-07-26T09:13:21.243Z,1013.85
2022-07-26T09:14:21.253Z,1013.78
2022-07-26T09:15:52.462Z,1013.8
2022-07-26T09:16:25.548Z,1013.8
2022-07-26T09:17:39.226Z,1013.84
2022-07-26T09:18:21.226Z,1013.87
2022-07-26T09:19:21.237Z,1013.83
2022-07-26T09:20:24.277Z,1013.79
2022-07-26T09:21:21.225Z,1013.85
2022-07-26T09:22:21.230Z,1013.82
2022-07-26T09:23:21.276Z,1013.76
2022-07-26T09:24:21.233Z,1013.77
2022-07-26T09:25:21.230Z,1013.77
2022-07-26T09:26:21.237Z,1013.77
2022-07-26T09:27:33.057Z,1013.77
2022-07-26T09:28:21.243Z,1013.79
2022-07-26T09:29:21.239Z,1013.79
2022-07-26T09:30:21.227Z,1013.78
2022-07-26T09:31:21.382Z,1013.79
2022-07-26T09:32:21.222Z,1013.79
2022-07-26T09:33:21.225Z,1013.79
2022-07-26T09:34:21.263Z,1013.79
2022-07-26T09:35:45.350Z,1013.89
2022-07-26T09:36:21.233Z,1013.75
2022-07-26T09:37:21.243Z,1013.75
2022-07-26T09:38:21.232Z,1013.76
2022-07-26T09:39:33.692Z,1013.73
2022-07-26T09:40:21.227Z,1013.75
2022-07-26T09:41:44.636Z,1013.74
2022-07-26T09:42:27.518Z,1013.73
2022-07-26T09:43:23.926Z,1013.72
2022-07-26T09:44:21.257Z,1013.68
2022-07-26T09:45:21.267Z,1013.68
2022-07-26T09:46:21.301Z,1013.65
2022-07-26T09:47:21.234Z,1013.64
2022-07-26T09:48:21.238Z,1013.65
2022-07-26T09:49:21.281Z,1013.67
2022-07-26T09:50:21.402Z,1013.61
2022-07-26T09:51:21.226Z,1013.53
2022-07-26T09:52:21.222Z,1013.56
2022-07-26T09:53:25.284Z,1013.57
2022-07-26T09:54:21.248Z,1013.57
2022-07-26T09:55:21.227Z,1013.66
2022-07-26T09:56:21.332Z,1013.66
2022-07-26T09:57:42.601Z,1013.69
2022-07-26T09:58:21.247Z,1013.73
2022-07-26T09:59:21.658Z,1013.78
2022-07-26T10:00:21.256Z,1013.72
2022-07-26T10:01:21.292Z,1013.71
2022-07-26T10:02:21.234Z,1013.71
2022-07-26T10:03:21.227Z,1013.86
2022-07-26T10:04:21.255Z,1013.81
2022-07-26T10:05:21.222Z,1013.76
2022-07-26T10:06:32.459Z,1013.73
2022-07-26T10:07:21.220Z,1013.74
2022-07-26T10:09:02.791Z,1013.76
2022-07-26T10:09:21.237Z,1013.76
2022-07-26T10:10:21.236Z,1013.77
2022-07-26T10:11:21.230Z,1013.78
2022-07-26T10:12:21.239Z,1013.76
2022-07-26T10:13:21.243Z,1013.81
2022-07-26T10:14:21.385Z,1013.86
2022-07-26T10:15:21.245Z,1013.82
2022-07-26T10:16:35.500Z,1013.81
2022-07-26T10:17:21.232Z,1013.76
2022-07-26T10:18:21.235Z,1013.82
2022-07-26T10:19:21.249Z,1013.83
2022-07-26T10:20:24.430Z,1013.83
2022-07-26T10:21:21.225Z,1013.8
2022-07-26T10:22:21.245Z,1013.83
2022-07-26T10:23:21.230Z,1013.83
2022-07-26T10:24:21.296Z,1013.89
2022-07-26T10:25:21.230Z,1013.88
2022-07-26T10:26:21.234Z,1013.77
2022-07-26T10:27:21.224Z,1013.75
2022-07-26T10:28:23.121Z,1013.83
2022-07-26T10:29:21.899Z,1013.8
2022-07-26T10:30:21.225Z,1013.72
2022-07-26T10:31:21.340Z,1013.69
2022-07-26T10:32:21.225Z,1013.67
2022-07-26T10:33:21.237Z,1013.68
2022-07-26T10:34:25.012Z,1013.76
2022-07-26T10:35:21.226Z,1013.69
2022-07-26T10:36:40.083Z,1013.79
2022-07-26T10:37:21.240Z,1013.8
2022-07-26T10:38:21.225Z,1013.91
2022-07-26T10:39:21.229Z,1013.92
2022-07-26T10:40:21.305Z,1013.81
2022-07-26T10:41:33.790Z,1013.85
2022-07-26T10:42:21.227Z,1013.9
2022-07-26T10:43:40.024Z,1013.91
2022-07-26T10:44:21.245Z,1013.93
2022-07-26T10:45:21.234Z,1013.87
2022-07-26T10:46:21.304Z,1013.89
2022-07-26T10:47:21.224Z,1013.87
2022-07-26T10:48:31.862Z,1013.85
2022-07-26T10:49:21.228Z,1013.87
2022-07-26T10:50:29.243Z,1013.87
2022-07-26T10:51:22.013Z,1013.88
2022-07-26T10:52:21.240Z,1013.91
2022-07-26T10:53:21.244Z,1013.82
2022-07-26T10:54:30.386Z,1013.82
2022-07-26T10:55:21.250Z,1013.83
2022-07-26T10:56:21.235Z,1013.83
2022-07-26T10:57:21.235Z,1013.78
2022-07-26T10:58:21.233Z,1013.73
2022-07-26T10:59:53.258Z,1013.73
2022-07-26T11:00:21.239Z,1013.67
2022-07-26T11:01:21.350Z,1013.61
2022-07-26T11:02:21.303Z,1013.55
2022-07-26T11:03:29.324Z,1013.55
2022-07-26T11:04:21.269Z,1013.45
2022-07-26T11:05:21.239Z,1013.43
2022-07-26T11:06:21.223Z,1013.37
2022-07-26T11:07:21.227Z,1013.36
2022-07-26T11:08:21.222Z,1013.29
2022-07-26T11:09:21.447Z,1013.31
2022-07-26T11:10:33.417Z,1013.31
2022-07-26T11:11:21.230Z,1013.36
2022-07-26T11:12:21.243Z,1013.37
2022-07-26T11:13:21.230Z,1013.44
2022-07-26T11:14:21.228Z,1013.46
2022-07-26T11:15:21.262Z,1013.46
2022-07-26T11:16:21.385Z,1013.53
2022-07-26T11:17:21.240Z,1013.59
2022-07-26T11:19:00.757Z,1013.59
2022-07-26T11:19:21.227Z,1013.6
2022-07-26T11:20:22.028Z,1013.62
2022-07-26T11:21:21.249Z,1013.65
2022-07-26T11:22:21.231Z,1013.66
2022-07-26T11:23:21.240Z,1013.66
2022-07-26T11:24:37.642Z,1013.71
2022-07-26T11:25:21.225Z,1013.69
2022-07-26T11:26:21.242Z,1013.66
2022-07-26T11:27:21.235Z,1013.65
2022-07-26T11:28:21.241Z,1013.68
2022-07-26T11:29:40.516Z,1013.68
2022-07-26T11:30:21.136Z,1013.63
2022-07-26T11:31:21.419Z,1013.58
2022-07-26T11:32:21.925Z,1013.58
2022-07-26T11:33:21.243Z,1013.58
2022-07-26T11:34:21.249Z,1013.58
2022-07-26T11:35:21.290Z,1013.52
2022-07-26T11:36:21.233Z,1013.55
2022-07-26T11:37:25.601Z,1013.55
2022-07-26T11:38:21.219Z,1013.54
2022-07-26T11:39:21.242Z,1013.51
2022-07-26T11:40:21.224Z,1013.46
2022-07-26T11:41:21.234Z,1013.45
2022-07-26T11:42:21.220Z,1013.39
2022-07-26T11:43:21.240Z,1013.34
2022-07-26T11:44:21.222Z,1013.33
2022-07-26T11:45:21.243Z,1013.35
2022-07-26T11:46:21.328Z,1013.28
2022-07-26T11:47:21.218Z,1013.23
2022-07-26T11:48:21.240Z,1013.23
2022-07-26T11:49:22.915Z,1013.19
2022-07-26T11:50:23.163Z,1013.23
2022-07-26T11:51:21.237Z,1013.18
2022-07-26T11:52:25.475Z,1013.26
2022-07-26T11:53:21.230Z,1013.28
2022-07-26T11:54:21.227Z,1013.25
2022-07-26T11:55:21.219Z,1013.37
2022-07-26T11:56:21.241Z,1013.37
2022-07-26T11:57:21.232Z,1013.4
2022-07-26T11:58:21.226Z,1013.43
2022-07-26T11:59:21.231Z,1013.45
2022-07-26T12:00:21.229Z,1013.45
2022-07-26T12:01:21.245Z,1013.42
2022-07-26T12:02:21.238Z,1013.4
2022-07-26T12:03:41.311Z,1013.42
2022-07-26T12:04:21.344Z,1013.46
2022-07-26T12:05:38.760Z,1013.46
2022-07-26T12:06:21.242Z,1013.36
2022-07-26T12:07:42.013Z,1013.36
2022-07-26T12:08:21.553Z,1013.37